Kruzenshtern — UCVK — position and weather

sailwx.info

Track history (hours):
 
Tides and Currents Weather Stations Pressure Air Temp Water Temp Dewpoint Dewpoint Depression Visibility Wind Speed Wind Dir Waves Ship Positions

Kruzenshtern (Russia)

ex-Padua.

Last reported at 2020-Jun-03 02:36 UTC. Time now 2020-Jul-03 20:57 UTC.
Position N 54°40' E 019°47'.
Warning: this ship's position is 30 days out of date.

Length 114 m; draft 6 m.

Type: Sailing vessel. MMSI: 273243700.

Date/timePositionNaut miles runAvg speedWind from/ knotsBaromVisibWave heightAir tempDewpointWater temp
2020-Jun-03 02:36N 54°40' E 019°47'3 0.8
2020-Jun-02 23:01N 54°39' E 019°43'1 0.7
2020-Jun-02 22:00N 54°40' E 019°43'0 0.7
2020-Jun-02 21:23N 54°40' E 019°43'0 0.6
2020-Jun-02 20:33N 54°41' E 019°43'1 2.2
2020-Jun-02 20:00N 54°40' E 019°43'0 0.1
2020-Jun-02 17:30N 54°39' E 019°43'1 0.4
2020-Jun-02 14:58N 54°40' E 019°41'6 3.3
2020-Jun-02 13:01N 54°40' E 019°30'4 1.8
2020-Jun-02 11:00N 54°40' E 019°24'1 0.6
2020-Jun-02 08:30N 54°42' E 019°24'2 0.5
2020-Jun-02 05:00N 54°43' E 019°24'2 0.6
2020-Jun-02 02:31N 54°45' E 019°24'1 0.7
2020-Jun-02 01:30N 54°45' E 019°24'1 1.3
2020-Jun-02 00:31N 54°47' E 019°23'1 1.5
2020-Jun-02 00:00N 54°47' E 019°22'1 1.4
2020-Jun-01 23:27N 54°48' E 019°22'3 1.9
2020-Jun-01 21:43N 54°46' E 019°26'1 0.2
2020-Jun-01 15:59N 54°45' E 019°27'0 0.9
2020-Jun-01 15:28N 54°45' E 019°26'2 0.9
2020-Jun-01 13:00N 54°47' E 019°24'1 0.9
2020-Jun-01 12:00N 54°48' E 019°23'1 0.9
2020-Jun-01 10:30N 54°49' E 019°22'8 4.0
2020-Jun-01 08:30N 54°54' E 019°12'5 1.3
2020-Jun-01 05:00N 54°58' E 019°06'3 5.3
2020-Jun-01 04:30N 54°55' E 019°07'6 3.7
2020-Jun-01 03:00N 54°49' E 019°07'1 1.1
2020-Jun-01 02:30N 54°50' E 019°07'1 1.0
2020-Jun-01 02:00N 54°51' E 019°07'2 1.1
2020-Jun-01 00:31N 54°52' E 019°07'1 1.2
2020-Jun-01 00:01N 54°53' E 019°07'1 1.1
2020-May-31 23:00N 54°54' E 019°06'4 1.2
2020-May-31 20:00N 54°58' E 019°06'3 1.4
2020-May-31 18:00N 55°00' E 019°05'1 1.3
2020-May-31 17:28N 55°01' E 019°04'2 1.2
2020-May-31 16:00N 55°03' E 019°03'1 1.2
2020-May-31 15:30N 55°03' E 019°03'1 1.2
2020-May-31 14:30N 55°04' E 019°02'1 1.2
2020-May-31 13:30N 55°05' E 019°02'1 1.3
2020-May-31 12:28N 55°07' E 019°01'2 1.4
2020-May-31 10:58N 55°08' E 018°59'2 1.4
2020-May-31 09:30N 55°10' E 018°58'11 1.3
2020-May-31 00:58N 55°21' E 018°56'3 1.0
2020-May-30 22:14N 55°24' E 018°55'10 1.3
2020-May-30 14:18N 55°34' E 018°50'25 0.8
2020-May-29 04:51N 55°59' E 018°55'12 6.7
2020-May-29 03:00N 55°54' E 018°36'7 7.0
2020-May-29 02:00N 55°51' E 018°24'11 7.2
2020-May-29 00:28N 55°46' E 018°06'30 7.1
2020-May-28 20:11N 55°34' E 017°17'1 6.6
2020-May-28 20:00N 55°33' E 017°16'7 6.6
2020-May-28 19:00N 55°30' E 017°05'17 6.9
2020-May-28 16:30N 55°23' E 016°37'14 3.0
2020-May-28 11:52N 55°17' E 016°15'1 1.0
2020-May-28 10:51N 55°18' E 016°16'0 1.0
2020-May-28 10:27N 55°18' E 016°16'12 1.0
2020-May-27 22:27N 55°29' E 016°26'134 6.2
2020-May-27 00:50N 54°44' E 012°45'17 7.2
2020-May-26 22:31N 54°35' E 012°20'76 4.5
2020-May-26 05:43N 55°31' E 010°52'69 6.7
2020-May-25 19:29N 56°40' E 011°02'9 2.3
2020-May-25 15:27N 56°49' E 010°60'41 3.1
2020-May-25 02:00N 57°30' E 010°43'7 7.2
2020-May-25 01:00N 57°37' E 010°44'3 7.0
2020-May-25 00:30N 57°40' E 010°46'  
Track history (hours):
 
Tides and Currents Weather Stations Pressure Air Temp Water Temp Dewpoint Dewpoint Depression Visibility Wind Speed Wind Dir Waves Ship Positions

Kruzenshtern (Russia)

ex-Padua.

Last reported at 2020-Jun-03 02:36 UTC. Time now 2020-Jul-03 20:57 UTC.
Position N 54°40' E 019°47'.
Warning: this ship's position is 30 days out of date.

Length 114 m; draft 6 m.

Type: Sailing vessel. MMSI: 273243700.

Date/timePositionNaut miles runAvg speedWind from/ knotsBaromVisibWave heightAir tempDewpointWater temp
2020-Jun-03 02:36N 54°40' E 019°47'3 0.8
2020-Jun-02 23:01N 54°39' E 019°43'1 0.7
2020-Jun-02 22:00N 54°40' E 019°43'0 0.7
2020-Jun-02 21:23N 54°40' E 019°43'0 0.6
2020-Jun-02 20:33N 54°41' E 019°43'1 2.2
2020-Jun-02 20:00N 54°40' E 019°43'0 0.1
2020-Jun-02 17:30N 54°39' E 019°43'1 0.4
2020-Jun-02 14:58N 54°40' E 019°41'6 3.3
2020-Jun-02 13:01N 54°40' E 019°30'4 1.8
2020-Jun-02 11:00N 54°40' E 019°24'1 0.6
2020-Jun-02 08:30N 54°42' E 019°24'2 0.5
2020-Jun-02 05:00N 54°43' E 019°24'2 0.6
2020-Jun-02 02:31N 54°45' E 019°24'1 0.7
2020-Jun-02 01:30N 54°45' E 019°24'1 1.3
2020-Jun-02 00:31N 54°47' E 019°23'1 1.5
2020-Jun-02 00:00N 54°47' E 019°22'1 1.4
2020-Jun-01 23:27N 54°48' E 019°22'3 1.9
2020-Jun-01 21:43N 54°46' E 019°26'1 0.2
2020-Jun-01 15:59N 54°45' E 019°27'0 0.9
2020-Jun-01 15:28N 54°45' E 019°26'2 0.9
2020-Jun-01 13:00N 54°47' E 019°24'1 0.9
2020-Jun-01 12:00N 54°48' E 019°23'1 0.9
2020-Jun-01 10:30N 54°49' E 019°22'8 4.0
2020-Jun-01 08:30N 54°54' E 019°12'5 1.3
2020-Jun-01 05:00N 54°58' E 019°06'3 5.3
2020-Jun-01 04:30N 54°55' E 019°07'6 3.7
2020-Jun-01 03:00N 54°49' E 019°07'1 1.1
2020-Jun-01 02:30N 54°50' E 019°07'1 1.0
2020-Jun-01 02:00N 54°51' E 019°07'2 1.1
2020-Jun-01 00:31N 54°52' E 019°07'1 1.2
2020-Jun-01 00:01N 54°53' E 019°07'1 1.1
2020-May-31 23:00N 54°54' E 019°06'4 1.2
2020-May-31 20:00N 54°58' E 019°06'3 1.4
2020-May-31 18:00N 55°00' E 019°05'1 1.3
2020-May-31 17:28N 55°01' E 019°04'2 1.2
2020-May-31 16:00N 55°03' E 019°03'1 1.2
2020-May-31 15:30N 55°03' E 019°03'1 1.2
2020-May-31 14:30N 55°04' E 019°02'1 1.2
2020-May-31 13:30N 55°05' E 019°02'1 1.3
2020-May-31 12:28N 55°07' E 019°01'2 1.4
2020-May-31 10:58N 55°08' E 018°59'2 1.4
2020-May-31 09:30N 55°10' E 018°58'11 1.3
2020-May-31 00:58N 55°21' E 018°56'3 1.0
2020-May-30 22:14N 55°24' E 018°55'10 1.3
2020-May-30 14:18N 55°34' E 018°50'25 0.8
2020-May-29 04:51N 55°59' E 018°55'12 6.7
2020-May-29 03:00N 55°54' E 018°36'7 7.0
2020-May-29 02:00N 55°51' E 018°24'11 7.2
2020-May-29 00:28N 55°46' E 018°06'30 7.1
2020-May-28 20:11N 55°34' E 017°17'1 6.6
2020-May-28 20:00N 55°33' E 017°16'7 6.6
2020-May-28 19:00N 55°30' E 017°05'17 6.9
2020-May-28 16:30N 55°23' E 016°37'14 3.0
2020-May-28 11:52N 55°17' E 016°15'1 1.0
2020-May-28 10:51N 55°18' E 016°16'0 1.0
2020-May-28 10:27N 55°18' E 016°16'12 1.0
2020-May-27 22:27N 55°29' E 016°26'134 6.2
2020-May-27 00:50N 54°44' E 012°45'17 7.2
2020-May-26 22:31N 54°35' E 012°20'76 4.5
2020-May-26 05:43N 55°31' E 010°52'69 6.7
2020-May-25 19:29N 56°40' E 011°02'9 2.3
2020-May-25 15:27N 56°49' E 010°60'41 3.1
2020-May-25 02:00N 57°30' E 010°43'7 7.2
2020-May-25 01:00N 57°37' E 010°44'3 7.0
2020-May-25 00:30N 57°40' E 010°46'  

Dump ship's entire track history